Time;durP1;ratioP1;P1;durP2;ratioP2;P2;SDS_P1;SDS_P2;PMS_P1;PMS_P2;Temp;Humidity;BMP_temperature;BMP_pressure;BME280_temperature;BME280_humidity;BME280_pressure;Samples;Min_cycle;Max_cycle;Signal;HPM_P1;HPM_P2
2020/12/23 00:00:12;;;;;;;21.17;10.03;;;12.30;99.90;;;;;;5031546;28;20188;-64
2020/12/23 00:02:41;;;;;;;15.13;9.30;;;12.30;99.90;;;;;;5031981;28;20183;-66
2020/12/23 00:05:09;;;;;;;19.87;9.73;;;12.30;99.90;;;;;;5031464;28;20704;-64
2020/12/23 00:07:35;;;;;;;19.53;8.37;;;12.30;99.90;;;;;;5031413;28;20604;-65
2020/12/23 00:10:01;;;;;;;17.93;8.43;;;12.30;99.90;;;;;;5031533;28;20251;-65
2020/12/23 00:12:27;;;;;;;17.77;8.40;;;12.30;99.90;;;;;;5032011;28;20488;-65
2020/12/23 00:14:53;;;;;;;20.60;7.50;;;12.30;99.90;;;;;;5032436;28;20184;-65
2020/12/23 00:17:21;;;;;;;18.33;7.63;;;12.30;99.90;;;;;;5032173;28;20649;-65
2020/12/23 00:19:47;;;;;;;14.63;8.23;;;12.30;99.90;;;;;;5031673;28;20190;-66
2020/12/23 00:22:16;;;;;;;14.60;8.23;;;12.30;99.90;;;;;;5031449;28;20742;-65
2020/12/23 00:24:43;;;;;;;18.50;7.80;;;12.40;99.90;;;;;;5031860;28;20672;-65
2020/12/23 00:27:08;;;;;;;17.00;7.60;;;12.40;99.90;;;;;;5031504;28;20195;-66
2020/12/23 00:29:34;;;;;;;18.57;9.27;;;12.40;99.90;;;;;;5031587;28;20182;-66
2020/12/23 00:32:00;;;;;;;16.43;8.70;;;12.40;99.90;;;;;;5031553;28;20246;-65
2020/12/23 00:34:26;;;;;;;14.17;8.73;;;12.40;99.90;;;;;;5031714;28;20179;-65
2020/12/23 00:36:57;;;;;;;15.40;8.07;;;12.40;99.90;;;;;;5032055;28;20175;-64
2020/12/23 00:39:23;;;;;;;15.47;7.83;;;12.40;99.90;;;;;;5031479;28;20175;-66
2020/12/23 00:41:49;;;;;;;18.63;7.87;;;12.30;99.90;;;;;;5013612;28;20206;-66
2020/12/23 00:44:16;;;;;;;15.07;7.37;;;12.30;99.90;;;;;;5031277;28;20258;-66
2020/12/23 00:46:42;;;;;;;16.20;7.93;;;12.30;99.90;;;;;;5031801;28;20287;-66
2020/12/23 00:49:08;;;;;;;19.43;9.70;;;12.20;99.90;;;;;;5031200;28;20175;-64
2020/12/23 00:51:34;;;;;;;19.67;8.60;;;12.20;99.90;;;;;;5031272;28;20665;-65
2020/12/23 00:54:00;;;;;;;19.37;8.57;;;12.20;99.90;;;;;;5031182;28;20176;-65
2020/12/23 00:56:25;;;;;;;15.80;9.37;;;12.20;99.90;;;;;;5031508;28;20182;-65
2020/12/23 00:58:51;;;;;;;16.50;9.83;;;12.20;99.90;;;;;;5031451;28;20229;-65
2020/12/23 01:01:17;;;;;;;21.97;10.67;;;12.20;99.90;;;;;;5030961;28;20616;-65
2020/12/23 01:03:43;;;;;;;17.87;10.60;;;12.10;99.90;;;;;;5031266;28;20198;-64
2020/12/23 01:06:10;;;;;;;20.27;9.87;;;12.10;99.90;;;;;;5031328;28;20168;-65
2020/12/23 01:08:36;;;;;;;19.40;10.20;;;12.10;99.90;;;;;;5031240;28;20277;-66
2020/12/23 01:11:05;;;;;;;20.77;10.17;;;12.10;99.90;;;;;;5031077;28;20669;-66
2020/12/23 01:13:31;;;;;;;17.27;9.80;;;12.20;99.90;;;;;;5030897;28;20603;-65
2020/12/23 01:15:57;;;;;;;18.37;10.40;;;12.20;99.90;;;;;;5031651;28;20172;-65
2020/12/23 01:18:23;;;;;;;20.43;10.43;;;12.20;99.90;;;;;;5031015;28;20258;-65
2020/12/23 01:20:49;;;;;;;21.70;10.73;;;12.10;99.90;;;;;;5034863;28;20259;-65
2020/12/23 01:23:14;;;;;;;17.57;10.47;;;12.10;99.90;;;;;;5034938;28;20219;-66
2020/12/23 01:25:40;;;;;;;23.70;10.33;;;12.20;99.90;;;;;;5036814;28;20267;-65
2020/12/23 01:28:06;;;;;;;18.53;11.37;;;12.20;99.90;;;;;;5037253;28;20203;-65
2020/12/23 01:30:31;;;;;;;23.17;12.30;;;12.20;99.90;;;;;;5036789;28;20167;-64
2020/12/23 01:32:57;;;;;;;23.20;12.33;;;12.20;99.90;;;;;;5034137;28;20195;-63
2020/12/23 01:35:22;;;;;;;26.17;12.00;;;12.20;99.90;;;;;;5034322;28;20202;-64
2020/12/23 01:37:48;;;;;;;17.07;10.87;;;12.20;99.90;;;;;;5034137;28;20187;-63
2020/12/23 01:40:13;;;;;;;20.50;12.17;;;12.20;99.90;;;;;;5033917;28;20261;-64
2020/12/23 01:42:39;;;;;;;23.23;12.30;;;12.20;99.90;;;;;;5034058;28;20207;-63
2020/12/23 01:45:05;;;;;;;19.40;11.00;;;12.20;99.90;;;;;;5034232;28;20175;-64
2020/12/23 01:47:32;;;;;;;15.57;10.40;;;12.20;99.90;;;;;;5033938;28;20207;-63
2020/12/23 01:49:58;;;;;;;19.97;9.27;;;12.20;99.90;;;;;;5033845;28;20164;-65
2020/12/23 01:52:24;;;;;;;15.17;9.50;;;12.20;99.90;;;;;;5033625;28;20199;-63
2020/12/23 01:54:51;;;;;;;12.60;8.23;;;12.20;99.90;;;;;;5033905;28;20225;-63
2020/12/23 01:57:17;;;;;;;17.03;8.10;;;12.20;99.90;;;;;;5033897;28;20170;-64
2020/12/23 01:59:47;;;;;;;10.60;7.47;;;12.20;99.90;;;;;;5033908;28;20180;-63
2020/12/23 02:02:35;;;;;;;14.27;7.47;;;12.10;99.90;;;;;;5033713;28;20693;-64
2020/12/23 02:05:02;;;;;;;8.97;6.20;;;12.10;99.90;;;;;;5033764;28;20187;-64
2020/12/23 02:07:28;;;;;;;9.70;7.17;;;12.10;99.90;;;;;;5033840;28;20191;-63
2020/12/23 02:09:56;;;;;;;13.23;6.33;;;12.20;99.90;;;;;;5033278;28;20191;-65
2020/12/23 02:12:22;;;;;;;15.73;6.13;;;12.10;99.90;;;;;;5033431;28;20211;-63
2020/12/23 02:14:48;;;;;;;8.43;5.67;;;12.10;99.90;;;;;;5033443;28;20176;-63
2020/12/23 02:17:15;;;;;;;9.53;5.47;;;12.20;99.90;;;;;;5033673;28;20267;-63
2020/12/23 02:19:50;;;;;;;9.73;5.70;;;12.20;99.90;;;;;;5033447;28;20605;-63
2020/12/23 02:22:22;;;;;;;7.77;5.23;;;12.20;99.90;;;;;;5033199;28;20194;-64
2020/12/23 02:24:52;;;;;;;8.90;5.00;;;12.20;99.90;;;;;;5033455;28;20688;-63
2020/12/23 02:27:22;;;;;;;11.13;5.20;;;12.20;99.90;;;;;;5033549;28;20199;-63
2020/12/23 02:29:50;;;;;;;10.20;5.33;;;12.20;99.90;;;;;;5033192;28;20534;-63
2020/12/23 02:32:16;;;;;;;8.37;4.80;;;12.20;99.90;;;;;;5032888;28;20762;-64
2020/12/23 02:34:42;;;;;;;8.27;5.10;;;12.20;99.90;;;;;;5033390;28;20660;-63
2020/12/23 02:37:09;;;;;;;8.93;5.20;;;12.20;99.90;;;;;;5033500;28;20653;-63
2020/12/23 02:39:40;;;;;;;10.67;5.43;;;12.20;99.90;;;;;;5033077;28;20588;-64
2020/12/23 02:42:06;;;;;;;9.33;4.80;;;12.20;99.90;;;;;;5032881;28;20278;-64
2020/12/23 02:44:32;;;;;;;7.30;5.40;;;12.20;99.90;;;;;;5033041;28;20309;-63
2020/12/23 02:47:09;;;;;;;6.73;5.20;;;12.20;99.90;;;;;;5033081;28;20266;-63
2020/12/23 02:49:35;;;;;;;9.80;5.83;;;12.20;99.90;;;;;;5032816;28;20179;-63
2020/12/23 02:52:01;;;;;;;9.73;6.57;;;12.20;99.90;;;;;;5032488;28;20187;-63
2020/12/23 02:54:26;;;;;;;9.87;6.40;;;12.10;99.90;;;;;;5032653;28;20178;-64
2020/12/23 02:56:52;;;;;;;11.13;7.20;;;12.10;99.90;;;;;;5033041;28;20567;-64
2020/12/23 02:59:18;;;;;;;12.23;6.80;;;12.10;99.90;;;;;;5032459;28;20191;-63
2020/12/23 03:01:44;;;;;;;10.50;6.93;;;12.10;99.90;;;;;;5032466;28;20194;-64
2020/12/23 03:04:10;;;;;;;10.73;6.23;;;12.10;99.90;;;;;;5031992;28;20183;-65
2020/12/23 03:06:36;;;;;;;10.67;6.50;;;12.10;99.90;;;;;;5032705;28;20176;-63
2020/12/23 03:09:07;;;;;;;8.40;6.77;;;12.00;99.90;;;;;;5032773;28;20848;-63
2020/12/23 03:11:32;;;;;;;8.23;6.40;;;11.90;99.90;;;;;;5032286;28;20231;-63
2020/12/23 03:13:58;;;;;;;12.23;6.80;;;11.90;99.90;;;;;;5032277;28;20210;-64
2020/12/23 03:16:24;;;;;;;8.63;5.50;;;11.90;99.90;;;;;;5014769;28;20190;-64
2020/12/23 03:18:50;;;;;;;6.83;5.67;;;11.90;99.90;;;;;;5032267;28;20182;-63
2020/12/23 03:21:16;;;;;;;7.30;5.77;;;12.00;99.90;;;;;;5031994;28;20191;-64
2020/12/23 03:23:41;;;;;;;6.90;4.97;;;11.90;99.90;;;;;;5032320;28;20175;-64
2020/12/23 03:26:07;;;;;;;6.17;4.57;;;11.90;99.90;;;;;;5032298;28;20207;-65
2020/12/23 03:28:33;;;;;;;7.77;4.73;;;12.00;99.90;;;;;;5032454;28;20203;-65
2020/12/23 03:31:00;;;;;;;8.73;5.10;;;12.00;99.90;;;;;;5032091;28;20714;-65
2020/12/23 03:33:26;;;;;;;6.77;3.83;;;12.00;99.90;;;;;;5032124;28;20184;-65
2020/12/23 03:35:51;;;;;;;9.13;4.13;;;12.10;99.90;;;;;;5032587;28;20524;-65
2020/12/23 03:38:17;;;;;;;7.53;3.83;;;12.10;99.90;;;;;;5032584;28;20199;-65
2020/12/23 03:40:43;;;;;;;6.30;3.70;;;12.10;99.90;;;;;;5032584;28;20172;-65
2020/12/23 03:43:08;;;;;;;6.53;3.70;;;12.10;99.90;;;;;;5031709;28;20570;-66
2020/12/23 03:45:34;;;;;;;5.50;3.70;;;12.00;99.90;;;;;;5032697;28;20190;-65
2020/12/23 03:48:00;;;;;;;4.47;3.80;;;11.90;99.90;;;;;;5031663;28;20203;-63
2020/12/23 03:50:26;;;;;;;8.17;4.10;;;11.80;99.90;;;;;;5031620;28;20167;-64
2020/12/23 03:52:51;;;;;;;5.13;3.60;;;11.80;99.90;;;;;;5031683;28;20203;-63
2020/12/23 03:55:17;;;;;;;4.80;3.47;;;11.70;99.90;;;;;;5031821;28;20171;-63
2020/12/23 03:57:43;;;;;;;4.03;3.20;;;11.60;99.90;;;;;;5031618;28;20176;-63
2020/12/23 04:00:11;;;;;;;4.97;3.50;;;11.60;99.90;;;;;;5031355;28;20175;-64
2020/12/23 04:02:38;;;;;;;3.30;2.80;;;11.60;99.90;;;;;;5031619;28;20402;-63
2020/12/23 04:05:04;;;;;;;3.70;3.07;;;11.60;99.90;;;;;;5032061;28;20180;-63
2020/12/23 04:07:30;;;;;;;5.37;2.80;;;11.60;99.90;;;;;;5031304;28;20199;-64
2020/12/23 04:09:56;;;;;;;4.57;2.47;;;11.60;99.90;;;;;;5031372;28;20194;-63
2020/12/23 04:12:22;;;;;;;3.30;3.00;;;11.60;99.90;;;;;;5030976;28;20664;-64
2020/12/23 04:14:48;;;;;;;4.50;3.00;;;11.60;99.90;;;;;;5031659;28;20172;-64
2020/12/23 04:17:13;;;;;;;3.27;2.97;;;11.60;99.90;;;;;;5031280;28;20210;-63
2020/12/23 04:19:39;;;;;;;4.07;3.03;;;11.60;99.90;;;;;;5031554;28;20187;-63
2020/12/23 04:22:04;;;;;;;4.67;2.70;;;11.60;99.90;;;;;;5030761;28;20257;-63
2020/12/23 04:24:30;;;;;;;4.10;3.43;;;11.60;99.90;;;;;;5031481;28;20629;-63
2020/12/23 04:26:56;;;;;;;5.00;3.80;;;11.60;99.90;;;;;;5031466;28;20266;-64
2020/12/23 04:29:22;;;;;;;3.63;2.93;;;11.60;99.90;;;;;;5031276;28;20677;-63
2020/12/23 04:31:49;;;;;;;3.67;2.90;;;11.60;99.90;;;;;;5030997;28;20234;-63
2020/12/23 04:34:14;;;;;;;3.90;3.07;;;11.60;99.90;;;;;;5031250;28;20294;-63
2020/12/23 04:36:40;;;;;;;4.07;3.10;;;11.60;99.90;;;;;;5031146;28;20258;-64
2020/12/23 04:39:06;;;;;;;4.83;3.30;;;11.60;99.90;;;;;;5031277;28;20168;-63
2020/12/23 04:41:35;;;;;;;5.50;3.50;;;11.60;99.90;;;;;;5030872;28;20446;-63
2020/12/23 04:44:02;;;;;;;4.40;2.93;;;11.60;99.90;;;;;;5011413;28;20179;-63
2020/12/23 04:46:32;;;;;;;5.40;2.70;;;11.60;99.90;;;;;;5018045;28;20174;-64
2020/12/23 04:48:59;;;;;;;3.33;2.47;;;11.60;99.90;;;;;;5031392;28;20181;-63
2020/12/23 04:51:35;;;;;;;3.40;2.30;;;11.60;99.90;;;;;;5030598;28;20206;-64
2020/12/23 04:54:03;;;;;;;2.60;2.40;;;11.60;99.90;;;;;;5033948;28;20206;-64
2020/12/23 04:56:31;;;;;;;4.63;2.30;;;11.70;99.90;;;;;;5035136;28;20172;-63
2020/12/23 04:58:58;;;;;;;2.70;2.30;;;11.70;99.90;;;;;;5035151;28;20535;-64
2020/12/23 05:01:25;;;;;;;2.50;2.30;;;11.70;99.90;;;;;;5034382;28;20187;-63
2020/12/23 05:03:51;;;;;;;4.93;2.17;;;11.70;99.90;;;;;;5035100;28;20171;-64
2020/12/23 05:06:18;;;;;;;3.10;2.40;;;11.80;99.90;;;;;;5034550;28;20182;-64
2020/12/23 05:08:44;;;;;;;2.87;2.07;;;11.80;99.90;;;;;;5035049;28;20290;-64
2020/12/23 05:11:11;;;;;;;3.90;2.27;;;11.80;99.90;;;;;;5034194;28;20305;-64
2020/12/23 05:13:38;;;;;;;4.67;3.00;;;11.70;99.90;;;;;;5101777;22;20283;-65
2020/12/23 05:16:05;;;;;;;4.80;3.00;;;11.80;99.90;;;;;;5068308;28;20185;-64
2020/12/23 05:18:34;;;;;;;6.47;2.97;;;11.80;99.90;;;;;;5074852;28;20184;-65
2020/12/23 05:21:00;;;;;;;4.70;3.00;;;11.80;99.90;;;;;;5073142;28;20174;-65
2020/12/23 05:23:31;;;;;;;6.83;3.53;;;11.80;99.90;;;;;;5074536;28;20194;-65
2020/12/23 05:26:04;;;;;;;4.07;2.97;;;11.80;99.90;;;;;;5061733;28;20179;-65
2020/12/23 05:28:30;;;;;;;4.87;3.30;;;11.80;99.90;;;;;;5054534;28;20618;-65
2020/12/23 05:30:56;;;;;;;5.70;3.30;;;11.80;99.90;;;;;;5074207;28;20256;-65
2020/12/23 05:33:22;;;;;;;3.97;3.50;;;11.80;99.90;;;;;;5074475;28;20293;-65
2020/12/23 05:35:47;;;;;;;5.70;4.03;;;11.70;99.90;;;;;;5056067;28;20190;-65
2020/12/23 05:38:19;;;;;;;6.17;4.23;;;11.70;99.90;;;;;;5066461;28;20180;-66
2020/12/23 05:40:44;;;;;;;4.07;3.67;;;11.70;99.90;;;;;;5074252;28;20181;-65
2020/12/23 05:43:10;;;;;;;5.63;3.70;;;11.70;99.90;;;;;;5062677;28;20293;-65
2020/12/23 05:45:41;;;;;;;3.83;3.40;;;11.70;99.90;;;;;;5061103;28;20175;-65
2020/12/23 05:48:12;;;;;;;3.60;3.17;;;11.70;99.90;;;;;;5074050;28;20284;-65
2020/12/23 05:50:39;;;;;;;6.73;3.73;;;11.60;99.90;;;;;;5064685;28;20166;-64
2020/12/23 05:53:13;;;;;;;5.70;3.83;;;11.60;99.90;;;;;;5054147;28;20187;-64
2020/12/23 05:55:50;;;;;;;4.57;3.93;;;11.60;99.90;;;;;;5061613;28;20170;-65
2020/12/23 05:58:30;;;;;;;4.47;3.80;;;11.60;99.90;;;;;;5073847;28;20273;-65
2020/12/23 06:00:58;;;;;;;5.87;4.00;;;11.60;99.90;;;;;;5064613;28;20218;-65
2020/12/23 06:03:24;;;;;;;5.57;4.30;;;11.50;99.90;;;;;;5053866;28;20190;-65
2020/12/23 06:06:08;;;;;;;5.87;4.27;;;11.60;99.90;;;;;;5060366;28;20395;-65
2020/12/23 06:08:39;;;;;;;5.57;4.10;;;11.50;99.90;;;;;;5073909;28;20214;-65
2020/12/23 06:11:29;;;;;;;5.50;4.57;;;11.50;99.90;;;;;;5064912;28;20244;-65
2020/12/23 06:14:09;;;;;;;5.63;4.33;;;11.50;99.90;;;;;;5054000;28;20186;-65
2020/12/23 06:16:40;;;;;;;6.23;4.80;;;11.50;99.90;;;;;;5071814;28;20185;-65
2020/12/23 06:19:11;;;;;;;6.33;4.87;;;11.40;99.90;;;;;;5073757;28;20174;-65
2020/12/23 06:21:38;;;;;;;7.27;5.00;;;11.40;99.90;;;;;;5053519;28;20183;-65
2020/12/23 06:24:05;;;;;;;7.90;5.90;;;11.40;99.90;;;;;;5053562;28;20175;-65
2020/12/23 06:26:36;;;;;;;11.37;6.30;;;11.40;99.90;;;;;;5071707;28;20563;-65
2020/12/23 06:29:05;;;;;;;7.00;6.10;;;11.40;99.90;;;;;;5073583;28;20181;-65
2020/12/23 06:31:41;;;;;;;9.03;7.20;;;11.40;99.90;;;;;;5069455;28;20600;-64
2020/12/23 06:34:06;;;;;;;9.87;7.67;;;11.40;99.90;;;;;;5053714;28;20170;-65
2020/12/23 06:36:34;;;;;;;12.33;8.60;;;11.40;99.90;;;;;;5070609;28;20584;-65
2020/12/23 06:39:18;;;;;;;11.57;8.03;;;11.40;99.90;;;;;;5073445;28;20549;-66
2020/12/23 06:41:53;;;;;;;10.50;8.13;;;11.40;99.90;;;;;;5054629;28;20170;-65
2020/12/23 06:44:19;;;;;;;10.40;7.97;;;11.40;99.90;;;;;;5057492;28;20219;-65
2020/12/23 06:47:00;;;;;;;10.57;8.77;;;11.40;99.90;;;;;;5073194;28;20166;-66
2020/12/23 06:49:57;;;;;;;11.43;8.37;;;11.40;99.90;;;;;;5068092;28;20198;-64
2020/12/23 06:52:23;;;;;;;10.53;8.33;;;11.40;99.90;;;;;;5032779;28;20219;-65
2020/12/23 06:54:50;;;;;;;9.80;8.57;;;11.40;99.90;;;;;;5047871;28;20213;-65
2020/12/23 06:57:38;;;;;;;14.30;8.60;;;11.40;99.90;;;;;;5073007;28;20174;-65
2020/12/23 07:00:26;;;;;;;12.83;9.30;;;11.40;99.90;;;;;;5053117;28;20644;-65
2020/12/23 07:03:07;;;;;;;9.00;8.10;;;11.40;99.90;;;;;;5058969;28;20194;-65
2020/12/23 07:05:35;;;;;;;10.57;7.63;;;11.40;99.90;;;;;;5072920;28;20177;-64
2020/12/23 07:08:03;;;;;;;9.87;8.03;;;11.40;99.90;;;;;;5064961;28;20203;-65
2020/12/23 07:10:33;;;;;;;9.80;8.53;;;11.40;99.90;;;;;;5052204;28;20593;-65
2020/12/23 07:13:05;;;;;;;11.77;8.40;;;11.40;99.90;;;;;;5053669;28;20202;-65
2020/12/23 07:15:31;;;;;;;10.63;8.30;;;11.40;99.90;;;;;;5052653;28;20175;-65
2020/12/23 07:18:09;;;;;;;11.23;7.83;;;11.40;99.90;;;;;;5056819;28;20182;-64
2020/12/23 07:20:41;;;;;;;10.10;7.73;;;11.40;99.90;;;;;;5072116;28;20177;-66
2020/12/23 07:23:10;;;;;;;8.67;7.73;;;11.50;99.90;;;;;;5065787;28;20225;-65
2020/12/23 07:25:47;;;;;;;8.57;7.43;;;11.40;99.90;;;;;;5052359;28;20171;-65
2020/12/23 07:28:16;;;;;;;9.83;7.40;;;11.50;99.90;;;;;;5064851;28;20205;-65
2020/12/23 07:30:41;;;;;;;10.83;7.37;;;11.40;99.90;;;;;;5071817;28;20198;-64
2020/12/23 07:33:10;;;;;;;10.23;7.60;;;11.50;99.90;;;;;;5070242;28;20225;-64
2020/12/23 07:35:37;;;;;;;8.00;7.07;;;11.50;99.90;;;;;;5056923;28;20262;-64
2020/12/23 07:38:05;;;;;;;11.47;7.23;;;11.50;99.90;;;;;;5062032;28;20189;-64
2020/12/23 07:40:31;;;;;;;12.27;7.97;;;11.50;99.90;;;;;;5065763;28;21226;-65
2020/12/23 07:42:57;;;;;;;10.90;7.63;;;11.50;99.90;;;;;;5051914;28;20229;-64
2020/12/23 07:45:25;;;;;;;13.20;7.40;;;11.50;99.90;;;;;;5052834;28;20186;-64
2020/12/23 07:48:00;;;;;;;9.23;7.33;;;11.60;99.90;;;;;;5051745;28;20201;-64
2020/12/23 07:50:31;;;;;;;8.80;6.20;;;11.60;99.90;;;;;;5031582;28;20175;-65
2020/12/23 07:52:57;;;;;;;10.60;7.23;;;11.50;99.90;;;;;;5032859;28;20226;-65
2020/12/23 07:55:24;;;;;;;10.60;7.40;;;11.50;99.90;;;;;;5071729;28;20214;-65
2020/12/23 07:57:52;;;;;;;10.97;7.27;;;11.50;99.90;;;;;;5072104;28;20765;-64
2020/12/23 08:00:19;;;;;;;8.97;6.97;;;11.50;99.90;;;;;;5069531;28;20182;-65
2020/12/23 08:02:45;;;;;;;13.27;7.23;;;11.50;99.90;;;;;;5071790;28;20182;-65
2020/12/23 08:05:12;;;;;;;10.60;7.83;;;11.50;99.90;;;;;;5052474;28;20277;-65
2020/12/23 08:07:45;;;;;;;10.70;7.27;;;11.50;99.90;;;;;;5051475;28;20668;-65
2020/12/23 08:10:18;;;;;;;11.40;8.43;;;11.50;99.90;;;;;;5067562;28;20185;-65
2020/12/23 08:12:51;;;;;;;10.90;7.83;;;11.50;99.90;;;;;;5069558;28;20198;-65
2020/12/23 08:15:17;;;;;;;11.90;7.77;;;11.50;99.90;;;;;;5051393;28;20236;-66
2020/12/23 08:17:43;;;;;;;10.93;7.80;;;11.50;99.90;;;;;;5052184;28;20178;-65
2020/12/23 08:20:14;;;;;;;11.00;7.80;;;11.50;99.90;;;;;;5071034;28;20166;-65
2020/12/23 08:22:44;;;;;;;10.73;7.83;;;11.40;99.90;;;;;;5071054;28;20690;-64
2020/12/23 08:25:14;;;;;;;13.23;8.43;;;11.50;99.90;;;;;;5031315;28;20184;-65
2020/12/23 08:27:45;;;;;;;16.17;8.60;;;11.40;99.90;;;;;;5031792;28;20611;-65
2020/12/23 08:30:22;;;;;;;15.17;9.03;;;11.40;99.90;;;;;;5053175;28;20536;-64
2020/12/23 08:32:53;;;;;;;9.23;7.47;;;11.40;99.90;;;;;;5051381;28;20638;-65
2020/12/23 08:35:26;;;;;;;10.73;7.63;;;11.40;99.90;;;;;;5031231;28;20183;-65
2020/12/23 08:37:51;;;;;;;11.03;7.70;;;11.50;99.90;;;;;;5031381;28;20181;-65
2020/12/23 08:40:17;;;;;;;10.40;7.63;;;11.50;99.90;;;;;;5051570;28;20644;-65
2020/12/23 08:42:54;;;;;;;10.57;7.40;;;11.50;99.90;;;;;;5051076;28;20736;-63
2020/12/23 08:45:28;;;;;;;10.83;7.80;;;11.50;99.90;;;;;;5070032;28;20268;-65
2020/12/23 08:47:55;;;;;;;9.53;7.23;;;11.50;99.90;;;;;;5065194;28;20234;-65
2020/12/23 08:50:22;;;;;;;9.77;7.20;;;11.50;99.90;;;;;;5050891;28;20170;-65
2020/12/23 08:52:53;;;;;;;12.73;9.83;;;11.50;99.90;;;;;;5056082;28;20640;-64
2020/12/23 08:55:26;;;;;;;11.77;7.93;;;11.50;99.90;;;;;;5071365;28;20253;-65
2020/12/23 08:58:08;;;;;;;12.07;8.87;;;11.50;99.90;;;;;;5069563;28;20198;-64
2020/12/23 09:00:34;;;;;;;14.90;10.17;;;11.50;99.90;;;;;;5070848;28;20187;-65
2020/12/23 09:03:00;;;;;;;12.20;9.07;;;11.50;99.90;;;;;;5057052;28;20202;-64
2020/12/23 09:05:30;;;;;;;9.80;8.30;;;11.50;99.90;;;;;;5052071;28;20179;-65
2020/12/23 09:08:06;;;;;;;13.33;9.17;;;11.50;99.90;;;;;;5063272;28;20290;-65
2020/12/23 09:10:34;;;;;;;13.90;8.90;;;11.50;99.90;;;;;;5070691;28;20170;-65
2020/12/23 09:13:12;;;;;;;12.27;7.80;;;11.60;99.90;;;;;;5058038;28;20246;-63
2020/12/23 09:15:39;;;;;;;14.60;8.83;;;11.50;99.90;;;;;;5053543;28;20171;-65
2020/12/23 09:18:09;;;;;;;10.47;7.90;;;11.60;99.90;;;;;;5069820;28;20178;-65
2020/12/23 09:20:37;;;;;;;12.80;7.73;;;11.60;99.90;;;;;;5058769;28;20671;-65
2020/12/23 09:23:04;;;;;;;11.73;8.33;;;11.70;99.90;;;;;;5050726;28;20194;-64
2020/12/23 09:25:32;;;;;;;12.50;7.77;;;11.70;99.90;;;;;;5061301;28;20536;-65
2020/12/23 09:28:09;;;;;;;9.13;8.20;;;11.70;99.90;;;;;;5070752;28;20573;-65
2020/12/23 09:30:44;;;;;;;10.90;7.73;;;11.80;99.90;;;;;;5059501;28;20670;-65
2020/12/23 09:33:16;;;;;;;9.33;7.40;;;11.80;99.90;;;;;;5050512;28;20679;-65
2020/12/23 09:35:44;;;;;;;8.00;7.20;;;11.80;99.90;;;;;;5062023;28;20175;-63
2020/12/23 09:38:27;;;;;;;11.27;8.43;;;11.90;99.90;;;;;;5070626;28;20179;-65
2020/12/23 09:40:58;;;;;;;11.03;7.70;;;11.90;99.90;;;;;;5060730;28;20232;-64
2020/12/23 09:43:28;;;;;;;8.73;7.43;;;12.10;99.90;;;;;;5054217;28;20266;-65
2020/12/23 09:45:55;;;;;;;10.67;7.80;;;12.10;99.90;;;;;;5065843;28;20667;-64
2020/12/23 09:48:23;;;;;;;9.93;7.80;;;12.20;99.90;;;;;;5066343;28;20225;-65
2020/12/23 09:50:52;;;;;;;11.73;8.77;;;12.20;99.90;;;;;;5052993;28;20194;-64
2020/12/23 09:53:18;;;;;;;11.70;8.47;;;12.30;99.90;;;;;;5059701;28;20307;-65
2020/12/23 09:55:45;;;;;;;10.97;7.77;;;12.30;99.90;;;;;;5065494;28;20190;-65
2020/12/23 09:58:12;;;;;;;10.03;7.93;;;12.40;99.90;;;;;;5053869;28;20170;-64
2020/12/23 10:00:38;;;;;;;9.27;7.17;;;12.50;99.90;;;;;;5054487;28;20182;-65
2020/12/23 10:03:04;;;;;;;8.37;7.07;;;12.60;99.90;;;;;;5053791;28;20616;-65
2020/12/23 10:05:31;;;;;;;10.70;7.47;;;12.70;99.90;;;;;;5055378;28;20182;-65
2020/12/23 10:07:57;;;;;;;7.37;6.40;;;12.70;99.90;;;;;;5073947;28;20603;-65
2020/12/23 10:10:23;;;;;;;8.10;6.60;;;12.80;99.90;;;;;;5073372;28;20472;-64
2020/12/23 10:12:49;;;;;;;7.93;6.20;;;12.80;99.90;;;;;;5072660;28;20248;-65
2020/12/23 10:15:15;;;;;;;8.40;6.73;;;12.80;99.90;;;;;;5073705;28;20178;-65
2020/12/23 10:17:41;;;;;;;9.70;5.90;;;12.80;99.90;;;;;;5054985;28;20193;-65
2020/12/23 10:20:07;;;;;;;12.43;5.93;;;12.80;99.90;;;;;;5053158;28;20179;-65
2020/12/23 10:22:33;;;;;;;7.30;6.57;;;12.70;99.90;;;;;;5054574;28;20232;-65
2020/12/23 10:24:59;;;;;;;6.73;5.47;;;12.70;99.90;;;;;;5053565;28;20594;-64
2020/12/23 10:27:24;;;;;;;6.50;5.90;;;12.60;99.90;;;;;;5065260;28;20209;-64
2020/12/23 10:29:50;;;;;;;6.87;6.00;;;12.60;99.90;;;;;;5056146;28;20183;-65
2020/12/23 10:32:18;;;;;;;8.97;5.57;;;12.60;99.90;;;;;;5053047;28;20195;-65
2020/12/23 10:34:44;;;;;;;6.93;5.37;;;12.60;99.90;;;;;;5065499;28;20170;-65
2020/12/23 10:37:09;;;;;;;7.63;5.73;;;12.60;99.90;;;;;;5073553;28;20524;-65
2020/12/23 10:39:35;;;;;;;8.37;6.00;;;12.60;99.90;;;;;;5062477;28;20190;-65
2020/12/23 10:42:01;;;;;;;6.07;5.40;;;12.60;99.90;;;;;;5052791;28;20669;-65
2020/12/23 10:44:26;;;;;;;10.23;5.70;;;12.60;99.90;;;;;;5061685;28;20174;-64
2020/12/23 10:46:54;;;;;;;7.83;4.80;;;12.60;99.90;;;;;;5072217;28;20174;-64
2020/12/23 10:49:19;;;;;;;6.47;5.27;;;12.60;99.90;;;;;;5065204;28;20189;-65
2020/12/23 10:51:52;;;;;;;6.87;5.37;;;12.60;99.90;;;;;;5051538;28;20195;-65
2020/12/23 10:54:18;;;;;;;5.80;4.40;;;12.60;99.90;;;;;;5058986;28;20170;-64
2020/12/23 10:56:44;;;;;;;6.00;4.67;;;12.50;99.90;;;;;;5073176;28;20173;-66
2020/12/23 10:59:10;;;;;;;6.67;4.30;;;12.50;99.90;;;;;;5053853;28;20648;-65
2020/12/23 11:01:36;;;;;;;8.67;4.77;;;12.50;99.90;;;;;;5052516;28;20639;-65
2020/12/23 11:04:02;;;;;;;7.30;4.40;;;12.40;99.90;;;;;;5052333;28;20182;-65
2020/12/23 11:06:28;;;;;;;6.27;4.63;;;12.50;99.90;;;;;;5052507;28;20186;-64
2020/12/23 11:08:53;;;;;;;4.93;4.30;;;12.40;99.90;;;;;;5067356;28;20574;-64
2020/12/23 11:11:20;;;;;;;4.57;4.10;;;12.40;99.90;;;;;;5072163;28;20174;-64
2020/12/23 11:13:45;;;;;;;7.80;4.23;;;12.40;99.90;;;;;;5071199;28;20579;-64
2020/12/23 11:16:15;;;;;;;4.47;4.03;;;12.40;99.90;;;;;;5072318;28;20252;-65
2020/12/23 11:18:41;;;;;;;5.63;4.17;;;12.40;99.90;;;;;;5059878;28;20175;-65
2020/12/23 11:21:08;;;;;;;6.70;4.60;;;12.40;99.90;;;;;;5051878;28;20573;-65
2020/12/23 11:23:33;;;;;;;5.37;4.27;;;12.40;99.90;;;;;;5062575;28;20682;-65
2020/12/23 11:25:59;;;;;;;7.73;4.40;;;12.40;99.90;;;;;;5070574;28;20224;-64
2020/12/23 11:28:24;;;;;;;5.97;4.30;;;12.30;99.90;;;;;;5070935;28;20209;-65
2020/12/23 11:30:50;;;;;;;5.43;4.07;;;12.40;99.90;;;;;;5064443;28;20178;-65
2020/12/23 11:33:15;;;;;;;6.93;4.33;;;12.30;99.90;;;;;;5052050;28;20187;-65
2020/12/23 11:35:42;;;;;;;5.40;4.40;;;12.20;99.90;;;;;;5056500;28;20304;-64
2020/12/23 11:38:08;;;;;;;6.03;4.30;;;12.30;99.90;;;;;;5054645;28;20185;-65
2020/12/23 11:40:34;;;;;;;7.70;4.10;;;12.30;99.90;;;;;;5069263;28;20650;-65
2020/12/23 11:42:59;;;;;;;7.90;5.03;;;12.30;99.90;;;;;;5052185;28;20230;-65
2020/12/23 11:45:25;;;;;;;5.13;4.30;;;12.30;99.90;;;;;;5053284;28;20183;-65
2020/12/23 11:47:51;;;;;;;5.00;4.20;;;12.40;99.90;;;;;;5071929;28;20201;-65
2020/12/23 11:50:17;;;;;;;5.03;4.07;;;12.40;99.90;;;;;;5071013;28;20607;-63
2020/12/23 11:52:43;;;;;;;7.80;4.43;;;12.40;99.90;;;;;;5052007;28;20209;-64
2020/12/23 11:55:08;;;;;;;8.53;4.40;;;12.30;99.90;;;;;;5067015;28;20217;-65
2020/12/23 11:57:38;;;;;;;7.40;4.57;;;12.40;99.90;;;;;;5065666;28;20174;-65
2020/12/23 12:00:07;;;;;;;9.10;5.77;;;12.30;99.90;;;;;;5062770;28;20178;-65
2020/12/23 12:02:32;;;;;;;5.23;4.20;;;12.30;99.90;;;;;;5065749;28;20205;-65
2020/12/23 12:04:58;;;;;;;5.73;4.83;;;12.30;99.90;;;;;;5051711;28;20246;-64
2020/12/23 12:07:24;;;;;;;4.97;4.30;;;12.30;99.90;;;;;;5054379;28;20664;-65
2020/12/23 12:09:49;;;;;;;10.20;5.60;;;12.30;99.90;;;;;;5072116;28;20173;-63
2020/12/23 12:12:15;;;;;;;5.90;4.33;;;12.30;99.90;;;;;;5068332;28;20714;-65
2020/12/23 12:14:41;;;;;;;7.30;4.30;;;12.30;99.90;;;;;;5052637;28;20589;-64
2020/12/23 12:17:06;;;;;;;7.13;5.03;;;12.30;99.90;;;;;;5052718;28;20266;-64
2020/12/23 12:19:32;;;;;;;7.33;4.77;;;12.30;99.90;;;;;;5072057;28;20174;-66
2020/12/23 12:21:57;;;;;;;9.17;4.33;;;12.30;99.90;;;;;;5072662;28;20303;-65
2020/12/23 12:24:23;;;;;;;8.00;4.80;;;12.30;99.90;;;;;;5054645;28;20163;-64
2020/12/23 12:26:48;;;;;;;5.97;4.00;;;12.30;99.90;;;;;;5054063;28;20171;-65
2020/12/23 12:29:14;;;;;;;7.60;3.70;;;12.30;99.90;;;;;;5057099;28;20258;-64
2020/12/23 12:31:40;;;;;;;10.40;3.30;;;12.30;99.90;;;;;;5052778;28;20254;-65
2020/12/23 12:34:06;;;;;;;7.10;3.70;;;12.40;99.90;;;;;;5071769;28;20641;-64
2020/12/23 12:36:31;;;;;;;3.87;3.13;;;12.40;99.90;;;;;;5072663;28;20178;-65
2020/12/23 12:38:57;;;;;;;4.47;3.67;;;12.40;99.90;;;;;;5054264;28;20178;-65
2020/12/23 12:41:29;;;;;;;4.33;3.50;;;12.40;99.90;;;;;;5052282;28;20244;-65
2020/12/23 12:43:55;;;;;;;10.43;3.17;;;12.50;99.90;;;;;;5068396;28;20176;-65
2020/12/23 12:46:25;;;;;;;3.73;3.20;;;12.50;99.90;;;;;;5071583;28;20185;-65